createdAt,value
2023-04-14T00:00:15.294Z,91.50
2023-04-14T00:01:21.272Z,91.50
2023-04-14T00:02:24.073Z,91.50
2023-04-14T00:03:28.019Z,91.60
2023-04-14T00:04:30.771Z,91.60
2023-04-14T00:05:35.558Z,91.60
2023-04-14T00:06:38.208Z,91.60
2023-04-14T00:07:41.878Z,91.60
2023-04-14T00:08:44.440Z,91.70
2023-04-14T00:09:47.915Z,91.70
2023-04-14T00:10:50.436Z,91.70
2023-04-14T00:11:54.184Z,91.70
2023-04-14T00:12:56.840Z,91.80
2023-04-14T00:14:01.562Z,91.80
2023-04-14T00:15:05.107Z,91.70
2023-04-14T00:16:09.343Z,91.80
2023-04-14T00:17:13.473Z,91.80
2023-04-14T00:18:17.061Z,91.80
2023-04-14T00:19:19.574Z,91.80
2023-04-14T00:20:23.270Z,91.80
2023-04-14T00:21:27.082Z,91.80
2023-04-14T00:22:30.052Z,91.80
2023-04-14T00:23:33.564Z,91.90
2023-04-14T00:24:40.841Z,91.90
2023-04-14T00:25:44.472Z,91.90
2023-04-14T00:26:46.996Z,91.90
2023-04-14T00:27:50.688Z,91.90
2023-04-14T00:28:53.175Z,92.00
2023-04-14T00:29:56.809Z,92.00
2023-04-14T00:30:59.434Z,92.00
2023-04-14T00:32:03.097Z,92.00
2023-04-14T00:33:08.934Z,92.00
2023-04-14T00:34:12.460Z,91.90
2023-04-14T00:35:15.182Z,91.90
2023-04-14T00:36:18.709Z,92.00
2023-04-14T00:37:22.200Z,92.00
2023-04-14T00:38:25.463Z,92.00
2023-04-14T00:39:30.239Z,92.20
2023-04-14T00:40:33.049Z,92.20
2023-04-14T00:41:36.864Z,92.20
2023-04-14T00:42:44.309Z,92.20
2023-04-14T00:43:47.902Z,92.20
2023-04-14T00:44:50.490Z,92.00
2023-04-14T00:45:55.715Z,92.20
2023-04-14T00:46:59.243Z,92.20
2023-04-14T00:48:02.813Z,92.20
2023-04-14T00:49:07.840Z,92.20
2023-04-14T00:50:12.551Z,92.30
2023-04-14T00:51:15.968Z,92.30
2023-04-14T00:52:20.234Z,92.30
2023-04-14T00:53:22.836Z,92.40
2023-04-14T00:54:28.048Z,92.40
2023-04-14T00:55:30.916Z,92.40
2023-04-14T00:56:34.880Z,92.40
2023-04-14T00:57:38.277Z,92.40
2023-04-14T00:58:43.190Z,92.40
2023-04-14T00:59:45.767Z,92.40
2023-04-14T01:00:53.890Z,92.40
2023-04-14T01:01:57.701Z,92.40
2023-04-14T01:03:01.631Z,92.50
2023-04-14T01:04:06.356Z,92.50
2023-04-14T01:05:12.900Z,92.50
2023-04-14T01:06:15.601Z,92.50
2023-04-14T01:07:19.619Z,92.50
2023-04-14T01:08:22.856Z,92.50
2023-04-14T01:09:26.499Z,92.50
2023-04-14T01:10:38.300Z,92.50
2023-04-14T01:11:53.008Z,92.50
2023-04-14T01:13:16.338Z,92.50
2023-04-14T01:14:33.281Z,92.50
2023-04-14T01:15:43.772Z,92.50
2023-04-14T01:16:50.176Z,92.50
2023-04-14T01:18:05.707Z,92.70
2023-04-14T01:19:38.116Z,92.70
2023-04-14T01:20:44.950Z,92.70
2023-04-14T01:21:55.995Z,92.70
2023-04-14T01:23:07.392Z,92.80
2023-04-14T01:24:36.925Z,92.80
2023-04-14T01:26:31.396Z,92.80
2023-04-14T01:27:44.204Z,92.90
2023-04-14T01:29:25.990Z,92.80
2023-04-14T01:30:45.487Z,92.90
2023-04-14T01:31:59.006Z,92.90
2023-04-14T01:33:07.183Z,92.90
2023-04-14T01:34:16.714Z,92.90
2023-04-14T01:35:26.701Z,92.90
2023-04-14T01:36:45.968Z,92.90
2023-04-14T01:37:58.921Z,92.90
2023-04-14T01:39:09.435Z,92.90
2023-04-14T01:40:16.072Z,92.90
2023-04-14T01:41:22.804Z,92.90
2023-04-14T01:42:33.546Z,92.90
2023-04-14T01:43:42.385Z,92.90
2023-04-14T01:44:46.689Z,92.90
2023-04-14T01:45:54.204Z,92.90
2023-04-14T01:47:03.485Z,92.90
2023-04-14T01:48:08.701Z,93.00
2023-04-14T01:49:12.443Z,92.90
2023-04-14T01:50:17.552Z,92.90
2023-04-14T01:51:22.208Z,92.80
2023-04-14T01:52:27.453Z,92.90
2023-04-14T01:53:33.853Z,92.90
2023-04-14T01:54:41.457Z,93.00
2023-04-14T01:55:45.902Z,93.00
2023-04-14T01:56:52.036Z,93.10
2023-04-14T01:57:57.858Z,93.10
2023-04-14T01:59:03.168Z,93.10
2023-04-14T02:00:10.239Z,93.20
2023-04-14T02:01:20.043Z,93.20
2023-04-14T02:02:49.509Z,93.20
2023-04-14T02:04:04.078Z,93.30
2023-04-14T02:05:11.089Z,93.30
2023-04-14T02:06:14.672Z,93.30
2023-04-14T02:07:22.650Z,93.40
2023-04-14T02:08:27.752Z,93.40
2023-04-14T02:09:33.487Z,93.40
2023-04-14T02:10:38.264Z,93.30
2023-04-14T02:11:43.381Z,93.40
2023-04-14T02:12:47.185Z,93.40
2023-04-14T02:13:51.450Z,93.40
2023-04-14T02:14:55.593Z,93.40
2023-04-14T02:16:01.174Z,93.50
2023-04-14T02:17:05.904Z,93.50
2023-04-14T02:18:11.407Z,93.50
2023-04-14T02:19:19.516Z,93.50
2023-04-14T02:20:23.889Z,93.50
2023-04-14T02:21:28.550Z,93.50
2023-04-14T02:22:32.213Z,93.60
2023-04-14T02:23:36.420Z,93.60
2023-04-14T02:24:40.101Z,93.60
2023-04-14T02:25:52.504Z,93.60
2023-04-14T02:27:08.823Z,93.60
2023-04-14T02:28:18.386Z,93.60
2023-04-14T02:29:25.249Z,93.60
2023-04-14T02:30:32.050Z,93.70
2023-04-14T02:31:37.680Z,93.70
2023-04-14T02:32:45.313Z,93.70
2023-04-14T02:33:55.852Z,93.70
2023-04-14T02:35:06.581Z,93.80
2023-04-14T02:36:19.996Z,93.80
2023-04-14T02:37:27.578Z,93.80
2023-04-14T02:38:38.560Z,93.80
2023-04-14T02:39:45.485Z,93.80
2023-04-14T02:40:49.581Z,93.80
2023-04-14T02:42:01.565Z,93.80
2023-04-14T02:43:15.021Z,93.90
2023-04-14T02:44:23.736Z,93.90
2023-04-14T02:45:32.339Z,93.90
2023-04-14T02:46:42.039Z,94.00
2023-04-14T02:47:52.235Z,94.00
2023-04-14T02:48:57.160Z,94.00
2023-04-14T02:50:03.645Z,94.00
2023-04-14T02:51:08.472Z,94.10
2023-04-14T02:52:15.767Z,94.10
2023-04-14T02:53:23.576Z,94.10
2023-04-14T02:54:36.099Z,94.20
2023-04-14T02:55:40.884Z,94.10
2023-04-14T02:56:44.848Z,94.20
2023-04-14T02:57:50.256Z,94.20
2023-04-14T02:58:53.993Z,94.20
2023-04-14T03:00:00.203Z,94.20
2023-04-14T03:01:04.169Z,94.20
2023-04-14T03:02:09.361Z,94.30
2023-04-14T03:03:17.237Z,94.30
2023-04-14T03:04:24.600Z,94.30
2023-04-14T03:05:28.197Z,94.30
2023-04-14T03:06:41.967Z,94.40
2023-04-14T03:07:47.854Z,94.40
2023-04-14T03:08:55.238Z,94.40
2023-04-14T03:09:59.099Z,94.40
2023-04-14T03:11:03.584Z,94.40
2023-04-14T03:12:08.205Z,94.40
2023-04-14T03:13:12.858Z,94.50
2023-04-14T03:14:16.424Z,94.40
2023-04-14T03:15:21.912Z,94.50
2023-04-14T03:16:28.476Z,94.60
2023-04-14T03:17:33.775Z,94.50
2023-04-14T03:18:37.845Z,94.50
2023-04-14T03:19:48.055Z,94.50
2023-04-14T03:20:53.531Z,94.60
2023-04-14T03:22:00.256Z,94.60
2023-04-14T03:23:06.111Z,94.60
2023-04-14T03:24:20.982Z,94.60
2023-04-14T03:25:26.146Z,94.70
2023-04-14T03:26:33.501Z,94.70
2023-04-14T03:27:37.210Z,94.70
2023-04-14T03:28:43.647Z,94.80
2023-04-14T03:29:51.242Z,94.80
2023-04-14T03:30:56.557Z,94.80
2023-04-14T03:32:07.011Z,94.80
2023-04-14T03:33:19.975Z,94.80
2023-04-14T03:34:27.981Z,94.80
2023-04-14T03:35:34.330Z,94.80
2023-04-14T03:36:38.859Z,94.80
2023-04-14T03:37:43.577Z,94.80
2023-04-14T03:38:50.138Z,94.90
2023-04-14T03:39:54.536Z,94.90
2023-04-14T03:41:01.251Z,94.90
2023-04-14T03:42:08.090Z,95.00
2023-04-14T03:43:14.322Z,95.00
2023-04-14T03:44:20.042Z,95.00
2023-04-14T03:45:28.236Z,95.00
2023-04-14T03:46:31.653Z,95.00
2023-04-14T03:47:36.031Z,95.00
2023-04-14T03:48:42.878Z,95.00
2023-04-14T03:49:52.400Z,95.00
2023-04-14T03:50:58.234Z,95.00
2023-04-14T03:52:06.637Z,95.00
2023-04-14T03:53:12.593Z,95.00
2023-04-14T03:54:18.695Z,95.00
2023-04-14T03:55:23.574Z,95.10
2023-04-14T03:56:28.851Z,95.10
2023-04-14T03:57:33.285Z,95.10
2023-04-14T03:58:37.776Z,95.10
2023-04-14T03:59:41.693Z,95.10
2023-04-14T04:00:45.914Z,95.10
2023-04-14T04:01:49.651Z,95.10
2023-04-14T04:02:55.549Z,95.20
2023-04-14T04:04:00.986Z,95.20
2023-04-14T04:05:07.533Z,95.20
2023-04-14T04:06:12.270Z,95.20
2023-04-14T04:07:15.961Z,95.20
2023-04-14T04:08:21.023Z,95.20
2023-04-14T04:09:25.771Z,95.30
2023-04-14T04:10:31.300Z,95.30
2023-04-14T04:11:38.448Z,95.30
2023-04-14T04:12:43.529Z,95.30
2023-04-14T04:13:50.283Z,95.40
2023-04-14T04:14:52.870Z,95.30
2023-04-14T04:15:56.504Z,95.30
2023-04-14T04:17:04.398Z,95.30
2023-04-14T04:18:09.794Z,95.30
2023-04-14T04:19:16.133Z,95.30
2023-04-14T04:20:21.952Z,95.30
2023-04-14T04:21:28.952Z,95.30
2023-04-14T04:22:34.866Z,95.40
2023-04-14T04:23:41.274Z,95.40
2023-04-14T04:24:47.402Z,95.40
2023-04-14T04:25:56.892Z,95.40
2023-04-14T04:27:20.322Z,95.40
2023-04-14T04:28:29.690Z,95.50
2023-04-14T04:29:34.252Z,95.50
2023-04-14T04:30:40.719Z,95.50
2023-04-14T04:31:44.927Z,95.50
2023-04-14T04:32:47.669Z,95.40
2023-04-14T04:33:52.651Z,95.50
2023-04-14T04:34:56.800Z,95.50
2023-04-14T04:36:01.939Z,95.60
2023-04-14T04:37:12.741Z,95.40
2023-04-14T04:38:16.803Z,95.50
2023-04-14T04:39:21.289Z,95.40
2023-04-14T04:40:24.955Z,95.50
2023-04-14T04:41:30.739Z,95.40
2023-04-14T04:42:43.191Z,95.40
2023-04-14T04:43:48.845Z,95.40
2023-04-14T04:44:53.276Z,95.30
2023-04-14T04:46:19.769Z,95.40
2023-04-14T04:47:22.785Z,95.50
2023-04-14T04:48:28.905Z,95.30
2023-04-14T04:49:32.730Z,95.40
2023-04-14T04:50:38.668Z,95.50
2023-04-14T04:51:42.314Z,95.50
2023-04-14T04:52:46.450Z,95.50
2023-04-14T04:53:49.970Z,95.50
2023-04-14T04:54:52.625Z,95.60
2023-04-14T04:55:57.060Z,95.50
2023-04-14T04:57:00.657Z,95.30
2023-04-14T04:58:03.286Z,95.40
2023-04-14T04:59:06.963Z,95.50
2023-04-14T05:00:10.795Z,95.60
2023-04-14T05:01:16.237Z,95.60
2023-04-14T05:02:18.983Z,95.60
2023-04-14T05:03:22.838Z,95.40
2023-04-14T05:04:25.662Z,95.50
2023-04-14T05:05:29.333Z,95.60
2023-04-14T05:06:35.891Z,95.60
2023-04-14T05:07:39.576Z,95.60
2023-04-14T05:08:43.706Z,95.70
2023-04-14T05:09:47.248Z,95.70
2023-04-14T05:10:49.850Z,95.60
2023-04-14T05:11:53.391Z,95.50
2023-04-14T05:12:56.033Z,95.60
2023-04-14T05:13:59.857Z,95.50
2023-04-14T05:15:03.269Z,95.40
2023-04-14T05:16:09.577Z,95.50
2023-04-14T05:17:12.223Z,95.40
2023-04-14T05:18:16.231Z,95.50
2023-04-14T05:19:19.035Z,95.50
2023-04-14T05:20:22.739Z,95.30
2023-04-14T05:21:25.347Z,95.30
2023-04-14T05:22:29.155Z,95.30
2023-04-14T05:23:34.388Z,95.30
2023-04-14T05:24:39.467Z,95.20
2023-04-14T05:25:41.994Z,95.20
2023-04-14T05:27:01.795Z,95.20
2023-04-14T05:28:09.423Z,95.10
2023-04-14T05:29:12.960Z,95.10
2023-04-14T05:30:16.736Z,95.00
2023-04-14T05:31:20.263Z,95.00
2023-04-14T05:32:24.126Z,95.00
2023-04-14T05:33:27.224Z,94.80
2023-04-14T05:34:30.861Z,94.80
2023-04-14T05:35:33.468Z,94.70
2023-04-14T05:36:36.884Z,94.50
2023-04-14T05:37:39.505Z,94.10
2023-04-14T05:38:43.165Z,93.90
2023-04-14T05:39:47.190Z,93.50
2023-04-14T05:40:51.208Z,93.20
2023-04-14T05:41:54.149Z,92.80
2023-04-14T05:42:57.737Z,92.50
2023-04-14T05:44:04.812Z,92.00
2023-04-14T05:45:09.800Z,91.70
2023-04-14T05:46:13.415Z,91.20
2023-04-14T05:47:19.173Z,90.60
2023-04-14T05:48:25.156Z,90.20
2023-04-14T05:49:27.824Z,89.90
2023-04-14T05:50:35.536Z,89.30
2023-04-14T05:51:39.030Z,88.90
2023-04-14T05:52:41.722Z,88.40
2023-04-14T05:53:45.723Z,87.90
2023-04-14T05:54:49.894Z,87.60
2023-04-14T05:55:53.816Z,87.20
2023-04-14T05:56:57.692Z,87.20
2023-04-14T05:58:01.704Z,86.70
2023-04-14T05:59:04.403Z,86.20
2023-04-14T06:00:09.901Z,86.00
2023-04-14T06:01:19.183Z,85.60
2023-04-14T06:02:21.896Z,85.00
2023-04-14T06:03:25.967Z,84.70
2023-04-14T06:04:28.802Z,84.40
2023-04-14T06:05:33.828Z,84.40
2023-04-14T06:06:36.565Z,84.00
2023-04-14T06:07:42.028Z,83.30
2023-04-14T06:08:45.632Z,83.20
2023-04-14T06:09:50.591Z,83.50
2023-04-14T06:10:54.220Z,83.20
2023-04-14T06:11:57.076Z,82.70
2023-04-14T06:13:01.225Z,82.80
2023-04-14T06:14:05.576Z,82.60
2023-04-14T06:15:10.980Z,82.30
2023-04-14T06:16:14.654Z,82.20
2023-04-14T06:17:17.336Z,82.00
2023-04-14T06:18:21.041Z,81.80
2023-04-14T06:19:24.535Z,81.80
2023-04-14T06:20:27.179Z,81.40
2023-04-14T06:21:31.552Z,80.80
2023-04-14T06:22:34.089Z,80.80
2023-04-14T06:23:37.536Z,80.40
2023-04-14T06:24:40.801Z,80.30
2023-04-14T06:25:45.899Z,79.90
2023-04-14T06:26:48.360Z,79.70
2023-04-14T06:27:51.818Z,79.60
2023-04-14T06:28:54.368Z,79.30
2023-04-14T06:30:01.130Z,79.60
2023-04-14T06:31:04.053Z,79.50
2023-04-14T06:32:07.847Z,79.00
2023-04-14T06:33:10.678Z,78.90
2023-04-14T06:34:14.398Z,79.40
2023-04-14T06:35:29.577Z,79.80
2023-04-14T06:36:36.508Z,79.20
2023-04-14T06:37:39.179Z,79.40
2023-04-14T06:38:42.847Z,78.70
2023-04-14T06:39:45.755Z,78.70
2023-04-14T06:40:52.608Z,78.50
2023-04-14T06:41:57.150Z,78.60
2023-04-14T06:43:00.674Z,78.60
2023-04-14T06:44:04.106Z,78.60
2023-04-14T06:45:09.156Z,78.70
2023-04-14T06:46:12.885Z,78.10
2023-04-14T06:47:19.808Z,77.70
2023-04-14T06:48:23.299Z,77.80
2023-04-14T06:49:26.810Z,77.20
2023-04-14T06:50:29.554Z,77.10
2023-04-14T06:51:35.130Z,76.20
2023-04-14T06:52:37.740Z,76.30
2023-04-14T06:53:41.530Z,75.70
2023-04-14T06:54:45.022Z,75.20
2023-04-14T06:55:50.076Z,76.10
2023-04-14T06:56:53.704Z,75.20
2023-04-14T06:58:03.016Z,74.70
2023-04-14T06:59:06.614Z,74.70
2023-04-14T07:00:11.358Z,74.50
2023-04-14T07:01:15.720Z,74.20
2023-04-14T07:02:18.410Z,74.00
2023-04-14T07:03:22.275Z,73.30
2023-04-14T07:04:25.803Z,73.20
2023-04-14T07:05:29.627Z,72.50
2023-04-14T07:06:35.486Z,72.90
2023-04-14T07:07:40.222Z,71.60
2023-04-14T07:08:43.284Z,71.60
2023-04-14T07:09:46.922Z,70.30
2023-04-14T07:10:59.140Z,70.40
2023-04-14T07:12:02.860Z,69.40
2023-04-14T07:13:05.463Z,68.90
2023-04-14T07:14:09.004Z,69.10
2023-04-14T07:15:14.267Z,69.50
2023-04-14T07:16:17.802Z,69.40
2023-04-14T07:17:21.608Z,69.60
2023-04-14T07:18:24.256Z,68.60
2023-04-14T07:19:27.880Z,69.30
2023-04-14T07:20:30.829Z,70.00
2023-04-14T07:21:34.472Z,68.90
2023-04-14T07:22:38.306Z,69.70
2023-04-14T07:23:41.106Z,68.10
2023-04-14T07:24:44.707Z,67.20
2023-04-14T07:25:52.520Z,67.70
2023-04-14T07:26:56.044Z,66.60
2023-04-14T07:28:03.710Z,66.40
2023-04-14T07:29:07.900Z,66.50
2023-04-14T07:30:11.653Z,66.00
2023-04-14T07:31:17.193Z,65.90
2023-04-14T07:32:21.473Z,65.80
2023-04-14T07:33:24.158Z,66.20
2023-04-14T07:34:27.996Z,65.60
2023-04-14T07:35:31.157Z,64.70
2023-04-14T07:36:35.205Z,64.30
2023-04-14T07:37:38.766Z,63.90
2023-04-14T07:38:43.775Z,62.90
2023-04-14T07:39:47.601Z,62.10
2023-04-14T07:40:51.720Z,63.20
2023-04-14T07:41:57.810Z,61.20
2023-04-14T07:43:01.493Z,60.30
2023-04-14T07:44:05.042Z,61.20
2023-04-14T07:46:13.150Z,60.10
2023-04-14T07:47:17.065Z,59.80
2023-04-14T07:48:21.739Z,60.00
2023-04-14T07:49:25.835Z,60.10
2023-04-14T07:51:33.845Z,59.70
2023-04-14T07:52:37.041Z,58.10
2023-04-14T07:53:44.899Z,58.40
2023-04-14T07:54:48.632Z,58.60
2023-04-14T07:55:52.608Z,58.40
2023-04-14T07:56:57.111Z,58.00
2023-04-14T07:58:00.058Z,57.80
2023-04-14T07:59:03.838Z,57.30
2023-04-14T08:01:16.764Z,57.20
2023-04-14T08:02:21.821Z,57.30
2023-04-14T08:03:25.672Z,57.60
2023-04-14T08:04:29.426Z,55.20
2023-04-14T08:05:33.242Z,54.70
2023-04-14T08:06:36.927Z,54.70
2023-04-14T08:07:39.728Z,54.30
2023-04-14T08:08:43.396Z,54.00
2023-04-14T08:09:46.272Z,53.00
2023-04-14T08:10:49.836Z,51.30
2023-04-14T08:13:02.259Z,52.40
2023-04-14T08:14:07.213Z,52.30
2023-04-14T08:15:10.525Z,51.20
2023-04-14T08:16:14.386Z,52.00
2023-04-14T08:17:17.098Z,52.70
2023-04-14T08:18:20.961Z,52.20
2023-04-14T08:19:24.718Z,52.60
2023-04-14T08:20:27.295Z,52.60
2023-04-14T08:21:30.920Z,50.90
2023-04-14T08:22:34.567Z,51.30
2023-04-14T08:23:38.159Z,50.10
2023-04-14T08:24:41.054Z,49.50
2023-04-14T08:25:45.665Z,49.70
2023-04-14T08:26:49.250Z,50.90
2023-04-14T08:27:53.264Z,49.50
2023-04-14T08:28:57.045Z,50.90
2023-04-14T08:29:59.657Z,50.40
2023-04-14T08:31:03.163Z,47.20
2023-04-14T08:32:07.486Z,48.10
2023-04-14T08:33:10.598Z,47.50
2023-04-14T08:34:14.478Z,47.50
2023-04-14T08:35:37.967Z,48.70
2023-04-14T08:36:45.073Z,47.90
2023-04-14T08:37:47.474Z,46.40
2023-04-14T08:38:51.167Z,48.50
2023-04-14T08:39:53.816Z,49.10
2023-04-14T08:40:58.541Z,46.60
2023-04-14T08:42:01.248Z,46.70
2023-04-14T08:43:06.677Z,46.30
2023-04-14T08:44:10.569Z,47.60
2023-04-14T08:45:14.894Z,47.70
2023-04-14T08:46:21.309Z,47.40
2023-04-14T08:47:27.191Z,44.30
2023-04-14T08:48:33.133Z,46.90
2023-04-14T08:49:41.748Z,46.70
2023-04-14T08:51:07.829Z,45.30
2023-04-14T08:53:17.203Z,44.60
2023-04-14T08:54:22.082Z,43.50
2023-04-14T08:55:26.550Z,45.60
2023-04-14T08:56:39.441Z,44.40
2023-04-14T08:57:43.984Z,46.30
2023-04-14T08:58:49.845Z,46.30
2023-04-14T08:59:52.880Z,49.10
2023-04-14T09:00:57.008Z,50.90
2023-04-14T09:02:01.403Z,50.60
2023-04-14T09:03:05.409Z,48.40
2023-04-14T09:04:10.700Z,48.70
2023-04-14T09:05:14.027Z,48.90
2023-04-14T09:06:18.661Z,47.40
2023-04-14T09:07:21.465Z,48.20
2023-04-14T09:08:26.430Z,49.00
2023-04-14T09:09:31.847Z,47.20
2023-04-14T09:10:36.031Z,48.20
2023-04-14T09:11:41.231Z,49.10
2023-04-14T09:12:44.218Z,48.80
2023-04-14T09:13:51.473Z,48.80
2023-04-14T09:14:56.452Z,49.20
2023-04-14T09:16:00.250Z,46.60
2023-04-14T09:17:04.058Z,45.80
2023-04-14T09:18:08.016Z,47.10
2023-04-14T09:19:10.924Z,47.70
2023-04-14T09:20:36.347Z,46.20
2023-04-14T09:21:53.869Z,45.40
2023-04-14T09:22:59.327Z,44.50
2023-04-14T09:24:02.579Z,44.70
2023-04-14T09:25:08.732Z,44.30
2023-04-14T09:26:13.581Z,45.20
2023-04-14T09:27:16.446Z,46.10
2023-04-14T09:28:21.559Z,46.70
2023-04-14T09:29:27.687Z,47.30
2023-04-14T09:30:33.251Z,47.80
2023-04-14T09:31:36.657Z,46.90
2023-04-14T09:32:42.686Z,47.00
2023-04-14T09:33:48.630Z,47.00
2023-04-14T09:34:55.755Z,46.10
2023-04-14T09:36:01.448Z,45.70
2023-04-14T09:37:08.263Z,46.10
2023-04-14T09:38:14.740Z,46.80
2023-04-14T09:39:18.356Z,46.70
2023-04-14T09:40:32.029Z,45.40
2023-04-14T09:41:35.021Z,44.20
2023-04-14T09:42:42.984Z,43.80
2023-04-14T09:43:46.549Z,46.00
2023-04-14T09:45:01.284Z,44.70
2023-04-14T09:46:07.650Z,44.00
2023-04-14T09:47:15.373Z,44.20
2023-04-14T09:48:19.150Z,44.30
2023-04-14T09:49:22.146Z,43.10
2023-04-14T09:50:25.681Z,44.10
2023-04-14T09:51:33.535Z,44.80
2023-04-14T09:52:41.127Z,43.00
2023-04-14T09:53:47.379Z,43.70
2023-04-14T09:54:59.911Z,42.90
2023-04-14T09:56:07.257Z,43.20
2023-04-14T09:58:23.054Z,42.60
2023-04-14T09:59:36.840Z,44.00
2023-04-14T10:00:41.328Z,45.20
2023-04-14T10:01:47.830Z,46.10
2023-04-14T10:02:52.417Z,46.00
2023-04-14T10:03:56.631Z,46.00
2023-04-14T10:06:19.130Z,45.60
2023-04-14T10:07:23.096Z,47.10
2023-04-14T10:08:36.379Z,48.00
2023-04-14T10:09:40.881Z,47.60
2023-04-14T10:10:44.100Z,46.60
2023-04-14T10:11:47.884Z,47.80
2023-04-14T10:12:54.995Z,49.20
2023-04-14T10:14:01.902Z,49.60
2023-04-14T10:15:05.499Z,49.20
2023-04-14T10:16:11.156Z,50.20
2023-04-14T10:17:17.930Z,50.50
2023-04-14T10:18:21.062Z,49.90
2023-04-14T10:19:24.664Z,49.40
2023-04-14T10:20:28.670Z,51.10
2023-04-14T10:21:32.947Z,50.40
2023-04-14T10:22:39.031Z,50.70
2023-04-14T10:24:49.866Z,50.80
2023-04-14T10:25:55.651Z,53.10
2023-04-14T10:27:02.925Z,52.60
2023-04-14T10:28:06.090Z,52.10
2023-04-14T10:29:09.869Z,52.00
2023-04-14T10:30:13.568Z,52.10
2023-04-14T10:31:24.953Z,51.50
2023-04-14T10:32:34.206Z,51.80
2023-04-14T10:33:39.219Z,48.80
2023-04-14T10:34:58.704Z,48.60
2023-04-14T10:36:03.341Z,49.00
2023-04-14T10:37:17.492Z,50.20
2023-04-14T10:38:20.651Z,49.60
2023-04-14T10:39:25.933Z,49.60
2023-04-14T10:40:46.183Z,50.30
2023-04-14T10:41:51.255Z,50.90
2023-04-14T10:42:54.757Z,50.90
2023-04-14T10:43:58.403Z,49.60
2023-04-14T10:45:06.470Z,50.20
2023-04-14T10:46:11.429Z,51.40
2023-04-14T10:47:25.972Z,50.50
2023-04-14T10:48:34.464Z,50.30
2023-04-14T10:49:39.969Z,49.40
2023-04-14T10:50:47.806Z,49.90
2023-04-14T10:51:51.469Z,48.80
2023-04-14T10:52:56.717Z,50.50
2023-04-14T10:54:05.172Z,49.20
2023-04-14T10:55:09.414Z,48.50
2023-04-14T10:56:13.530Z,50.10
2023-04-14T10:57:16.322Z,49.30
2023-04-14T10:58:22.240Z,49.10
2023-04-14T10:59:25.941Z,49.30
2023-04-14T11:00:32.097Z,50.40
2023-04-14T11:01:38.316Z,50.00
2023-04-14T11:02:57.196Z,50.90
2023-04-14T11:04:19.342Z,51.90
2023-04-14T11:05:22.719Z,51.80
2023-04-14T11:06:55.715Z,50.70
2023-04-14T11:08:03.060Z,48.90
2023-04-14T11:09:28.768Z,48.50
2023-04-14T11:10:36.093Z,49.50
2023-04-14T11:11:38.748Z,49.70
2023-04-14T11:12:45.156Z,49.60
2023-04-14T11:14:12.044Z,49.50
2023-04-14T11:15:17.454Z,49.90
2023-04-14T11:16:30.126Z,50.40
2023-04-14T11:17:37.430Z,49.60
2023-04-14T11:18:45.552Z,48.20
2023-04-14T11:19:53.113Z,49.20
2023-04-14T11:21:02.425Z,48.90
2023-04-14T11:22:06.998Z,48.80
2023-04-14T11:23:14.445Z,48.40
2023-04-14T11:24:18.102Z,48.80
2023-04-14T11:25:24.780Z,51.80
2023-04-14T11:26:27.816Z,49.90
2023-04-14T11:27:34.752Z,48.20
2023-04-14T11:28:39.164Z,47.70
2023-04-14T11:29:42.669Z,48.40
2023-04-14T11:30:49.040Z,47.20
2023-04-14T11:32:05.607Z,47.70
2023-04-14T11:33:08.577Z,47.50
2023-04-14T11:34:13.593Z,48.60
2023-04-14T11:35:17.377Z,49.40
2023-04-14T11:36:21.107Z,48.60
2023-04-14T11:37:23.734Z,48.10
2023-04-14T11:39:30.437Z,49.90
2023-04-14T11:40:36.644Z,50.10
2023-04-14T11:41:39.290Z,51.00
2023-04-14T11:42:46.874Z,51.60
2023-04-14T11:43:50.493Z,51.30
2023-04-14T11:44:58.726Z,51.70
2023-04-14T11:46:06.147Z,52.00
2023-04-14T11:47:09.835Z,49.90
2023-04-14T11:48:14.327Z,50.80
2023-04-14T11:49:19.271Z,50.40
2023-04-14T11:50:24.814Z,51.70
2023-04-14T11:51:32.471Z,52.50
2023-04-14T11:52:36.453Z,52.80
2023-04-14T11:53:40.955Z,51.70
2023-04-14T11:54:43.972Z,51.80
2023-04-14T11:55:49.464Z,51.10
2023-04-14T11:56:52.245Z,50.70
2023-04-14T11:57:56.438Z,52.20
2023-04-14T11:59:03.282Z,52.10
2023-04-14T12:00:10.297Z,50.30
2023-04-14T12:01:14.952Z,48.90
2023-04-14T12:02:21.713Z,51.20
2023-04-14T12:03:28.165Z,49.20
2023-04-14T12:04:34.906Z,50.00
2023-04-14T12:05:39.513Z,48.40
2023-04-14T12:06:43.602Z,48.70
2023-04-14T12:07:47.755Z,48.50
2023-04-14T12:08:54.220Z,49.10
2023-04-14T12:09:58.002Z,49.60
2023-04-14T12:11:14.620Z,49.80
2023-04-14T12:12:20.339Z,49.80
2023-04-14T12:13:24.543Z,48.60
2023-04-14T12:14:27.264Z,48.70
2023-04-14T12:15:32.653Z,49.60
2023-04-14T12:16:36.390Z,49.00
2023-04-14T12:17:39.323Z,48.90
2023-04-14T12:18:43.902Z,49.70
2023-04-14T12:19:49.049Z,50.20
2023-04-14T12:20:55.901Z,48.90
2023-04-14T12:21:58.593Z,48.30
2023-04-14T12:23:05.562Z,48.00
2023-04-14T12:25:16.479Z,49.10
2023-04-14T12:26:20.597Z,49.50
2023-04-14T12:27:26.616Z,50.10
2023-04-14T12:28:30.583Z,49.70
2023-04-14T12:29:35.002Z,50.60
2023-04-14T12:30:51.567Z,50.50
2023-04-14T12:31:54.881Z,50.60
2023-04-14T12:32:58.941Z,51.40
2023-04-14T12:34:03.576Z,51.20
2023-04-14T12:35:10.448Z,51.00
2023-04-14T12:36:14.135Z,51.50
2023-04-14T12:37:18.474Z,51.80
2023-04-14T12:38:29.870Z,52.10
2023-04-14T12:39:32.717Z,52.50
2023-04-14T12:40:40.781Z,52.90
2023-04-14T12:41:43.576Z,52.80
2023-04-14T12:42:49.684Z,52.20
2023-04-14T12:43:53.950Z,51.40
2023-04-14T12:44:58.262Z,51.60
2023-04-14T12:46:03.831Z,49.20
2023-04-14T12:47:06.640Z,51.20
2023-04-14T12:48:10.670Z,51.20
2023-04-14T12:49:37.701Z,49.90
2023-04-14T12:50:41.802Z,50.80
2023-04-14T12:51:46.052Z,49.50
2023-04-14T12:52:49.082Z,50.30
2023-04-14T12:53:53.770Z,51.00
2023-04-14T12:54:56.706Z,51.10
2023-04-14T12:56:09.071Z,51.20
2023-04-14T12:57:12.529Z,51.40
2023-04-14T12:58:16.716Z,51.80
2023-04-14T12:59:20.642Z,52.30
2023-04-14T13:00:26.216Z,52.40
2023-04-14T13:01:29.089Z,51.80
2023-04-14T13:02:35.680Z,51.60
2023-04-14T13:03:41.046Z,52.50
2023-04-14T13:04:45.130Z,53.40
2023-04-14T13:05:49.216Z,53.70
2023-04-14T13:06:52.902Z,53.20
2023-04-14T13:07:57.373Z,54.50
2023-04-14T13:09:00.630Z,52.30
2023-04-14T13:10:05.156Z,53.00
2023-04-14T13:11:07.903Z,52.10
2023-04-14T13:12:11.744Z,50.90
2023-04-14T13:13:14.371Z,51.60
2023-04-14T13:14:18.559Z,53.00
2023-04-14T13:15:27.872Z,52.50
2023-04-14T13:16:45.669Z,51.70
2023-04-14T13:17:49.669Z,50.80
2023-04-14T13:18:53.327Z,51.30
2023-04-14T13:19:55.966Z,51.90
2023-04-14T13:21:02.318Z,51.90
2023-04-14T13:22:04.909Z,51.80
2023-04-14T13:23:08.628Z,52.50
2023-04-14T13:24:11.456Z,51.70
2023-04-14T13:25:17.623Z,53.20
2023-04-14T13:26:21.439Z,51.80
2023-04-14T13:27:24.227Z,51.20
2023-04-14T13:28:28.691Z,49.70
2023-04-14T13:29:33.111Z,49.20
2023-04-14T13:30:40.044Z,48.80
2023-04-14T13:31:45.551Z,48.90
2023-04-14T13:32:49.270Z,46.50
2023-04-14T13:33:53.016Z,48.90
2023-04-14T13:34:55.675Z,48.80
2023-04-14T13:36:09.032Z,48.70
2023-04-14T13:37:12.134Z,49.00
2023-04-14T13:38:16.554Z,49.20
2023-04-14T13:39:20.285Z,49.50
2023-04-14T13:40:23.876Z,50.20
2023-04-14T13:41:27.852Z,50.10
2023-04-14T13:42:30.680Z,50.90
2023-04-14T13:43:35.010Z,50.50
2023-04-14T13:44:38.744Z,50.50
2023-04-14T13:45:42.042Z,49.80
2023-04-14T13:46:46.673Z,49.50
2023-04-14T13:47:50.904Z,49.50
2023-04-14T13:48:55.330Z,49.10
2023-04-14T13:49:59.292Z,48.00
2023-04-14T13:51:02.332Z,48.30
2023-04-14T13:52:07.978Z,48.70
2023-04-14T13:53:12.455Z,48.60
2023-04-14T13:54:16.468Z,49.50
2023-04-14T13:55:20.650Z,49.80
2023-04-14T13:56:25.714Z,49.50
2023-04-14T13:57:28.379Z,49.50
2023-04-14T13:58:32.155Z,51.10
2023-04-14T13:59:35.814Z,50.80
2023-04-14T14:00:41.751Z,50.60
2023-04-14T14:01:45.582Z,51.40
2023-04-14T14:02:52.333Z,48.70
2023-04-14T14:03:56.556Z,49.60
2023-04-14T14:05:00.081Z,50.60
2023-04-14T14:06:04.049Z,50.40
2023-04-14T14:07:09.327Z,50.30
2023-04-14T14:08:15.064Z,49.50
2023-04-14T14:09:21.908Z,49.50
2023-04-14T14:10:24.599Z,49.60
2023-04-14T14:11:28.261Z,49.50
2023-04-14T14:12:32.495Z,50.30
2023-04-14T14:13:37.366Z,50.10
2023-04-14T14:14:40.128Z,50.40
2023-04-14T14:15:43.953Z,50.30
2023-04-14T14:16:47.760Z,50.20
2023-04-14T14:17:53.106Z,49.90
2023-04-14T14:18:57.341Z,49.40